createdAt,value
2018-12-15T00:02:24.980Z,50.30
2018-12-15T00:04:54.244Z,50.20
2018-12-15T00:07:22.965Z,49.60
2018-12-15T00:09:51.621Z,50.10
2018-12-15T00:12:20.247Z,50.10
2018-12-15T00:14:49.016Z,50.30
2018-12-15T00:17:17.620Z,50.40
2018-12-15T00:19:46.303Z,50.30
2018-12-15T00:22:14.988Z,50.20
2018-12-15T00:24:43.680Z,50.10
2018-12-15T00:27:12.334Z,50.10
2018-12-15T00:29:41.133Z,50.10
2018-12-15T00:32:09.745Z,49.50
2018-12-15T00:34:38.389Z,50.10
2018-12-15T00:37:07.020Z,50.00
2018-12-15T00:39:35.675Z,49.90
2018-12-15T00:42:04.901Z,50.10
2018-12-15T00:44:33.542Z,50.10
2018-12-15T00:47:02.213Z,50.10
2018-12-15T00:49:30.841Z,50.20
2018-12-15T00:51:59.453Z,49.70
2018-12-15T00:54:28.169Z,50.20
2018-12-15T00:56:56.764Z,50.40
2018-12-15T00:59:25.797Z,50.40
2018-12-15T01:01:54.953Z,50.40
2018-12-15T01:04:23.951Z,50.30
2018-12-15T01:06:52.589Z,50.50
2018-12-15T01:09:21.193Z,50.20
2018-12-15T01:11:49.818Z,50.40
2018-12-15T01:14:18.421Z,50.50
2018-12-15T01:16:47.056Z,50.60
2018-12-15T01:19:15.657Z,50.60
2018-12-15T01:21:44.250Z,50.60
2018-12-15T01:24:12.978Z,50.60
2018-12-15T01:26:41.833Z,50.50
2018-12-15T01:29:10.989Z,50.40
2018-12-15T01:31:39.633Z,50.40
2018-12-15T01:34:08.270Z,50.20
2018-12-15T01:36:36.925Z,50.20
2018-12-15T01:39:08.092Z,50.30
2018-12-15T01:41:36.778Z,50.20
2018-12-15T01:44:05.390Z,50.30
2018-12-15T01:46:34.041Z,50.20
2018-12-15T01:49:02.623Z,50.70
2018-12-15T01:51:31.226Z,50.10
2018-12-15T01:53:59.814Z,50.60
2018-12-15T01:56:28.461Z,50.00
2018-12-15T01:58:57.088Z,49.90
2018-12-15T02:01:25.680Z,49.80
2018-12-15T02:03:54.480Z,49.80
2018-12-15T02:06:23.136Z,49.70
2018-12-15T02:08:51.800Z,49.60
2018-12-15T02:11:20.421Z,49.60
2018-12-15T02:13:49.007Z,49.60
2018-12-15T02:16:17.616Z,49.70
2018-12-15T02:18:46.226Z,49.60
2018-12-15T02:21:14.829Z,49.70
2018-12-15T02:23:43.437Z,49.70
2018-12-15T02:26:13.090Z,49.60
2018-12-15T02:28:42.902Z,50.20
2018-12-15T02:31:11.830Z,50.20
2018-12-15T02:33:40.514Z,50.30
2018-12-15T02:36:09.136Z,50.40
2018-12-15T02:38:37.799Z,50.50
2018-12-15T02:41:06.423Z,50.60
2018-12-15T02:43:35.057Z,50.50
2018-12-15T02:46:03.664Z,50.40
2018-12-15T02:48:32.257Z,50.60
2018-12-15T02:51:00.854Z,50.50
2018-12-15T02:53:29.498Z,50.30
2018-12-15T02:55:58.745Z,50.10
2018-12-15T02:58:27.473Z,50.20
2018-12-15T03:00:56.109Z,50.10
2018-12-15T03:03:24.779Z,50.00
2018-12-15T03:05:53.381Z,50.00
2018-12-15T03:08:22.004Z,49.90
2018-12-15T03:10:50.641Z,49.80
2018-12-15T03:13:19.241Z,50.00
2018-12-15T03:15:47.846Z,49.80
2018-12-15T03:18:16.458Z,49.70
2018-12-15T03:21:02.335Z,49.80
2018-12-15T03:23:30.945Z,49.70
2018-12-15T03:25:59.554Z,49.70
2018-12-15T03:28:28.160Z,49.70
2018-12-15T03:30:56.801Z,49.70
2018-12-15T03:33:25.549Z,49.60
2018-12-15T03:35:54.164Z,49.60
2018-12-15T03:38:22.814Z,49.80
2018-12-15T03:40:51.534Z,49.60
2018-12-15T03:43:20.144Z,49.70
2018-12-15T03:45:48.762Z,49.80
2018-12-15T03:48:17.403Z,49.70
2018-12-15T03:50:46.021Z,49.80
2018-12-15T03:53:14.610Z,49.90
2018-12-15T03:55:43.193Z,50.00
2018-12-15T03:58:11.828Z,50.20
2018-12-15T04:00:40.441Z,50.10
2018-12-15T04:03:09.077Z,50.10
2018-12-15T04:05:38.343Z,50.10
2018-12-15T04:08:07.000Z,50.00
2018-12-15T04:10:36.159Z,50.10
2018-12-15T04:13:04.780Z,50.00
2018-12-15T04:15:33.424Z,49.90
2018-12-15T04:18:03.846Z,50.00
2018-12-15T04:20:32.798Z,49.50
2018-12-15T04:23:01.467Z,50.10
2018-12-15T04:25:30.119Z,50.10
2018-12-15T04:27:58.732Z,50.00
2018-12-15T04:30:27.347Z,50.10
2018-12-15T04:32:55.949Z,50.10
2018-12-15T04:35:24.609Z,50.00
2018-12-15T04:37:53.233Z,49.90
2018-12-15T04:40:21.989Z,49.70
2018-12-15T04:42:51.127Z,49.60
2018-12-15T04:45:19.735Z,49.60
2018-12-15T04:47:48.773Z,49.60
2018-12-15T04:50:17.412Z,49.60
2018-12-15T04:52:46.051Z,49.60
2018-12-15T04:55:14.694Z,49.50
2018-12-15T04:57:43.305Z,49.40
2018-12-15T05:00:11.933Z,49.40
2018-12-15T05:02:43.797Z,49.40
2018-12-15T05:05:11.146Z,49.40
2018-12-15T05:07:39.785Z,49.30
2018-12-15T05:10:08.452Z,49.30
2018-12-15T05:12:37.082Z,49.30
2018-12-15T05:15:05.694Z,49.40
2018-12-15T05:17:34.317Z,49.30
2018-12-15T05:20:02.935Z,49.50
2018-12-15T05:22:31.582Z,49.40
2018-12-15T05:25:00.232Z,49.60
2018-12-15T05:27:28.837Z,49.50
2018-12-15T05:29:57.461Z,49.50
2018-12-15T05:32:26.209Z,49.40
2018-12-15T05:34:54.840Z,49.40
2018-12-15T05:37:23.477Z,49.30
2018-12-15T05:39:52.111Z,49.30
2018-12-15T05:42:20.733Z,49.20
2018-12-15T05:44:49.750Z,49.20
2018-12-15T05:47:18.387Z,49.10
2018-12-15T05:49:46.961Z,49.10
2018-12-15T05:52:16.494Z,49.30
2018-12-15T05:54:45.081Z,49.30
2018-12-15T05:57:13.697Z,49.40
2018-12-15T05:59:42.328Z,49.40
2018-12-15T06:02:13.767Z,49.40
2018-12-15T06:04:42.360Z,49.40
2018-12-15T06:07:11.041Z,49.30
2018-12-15T06:09:39.652Z,49.40
2018-12-15T06:12:08.289Z,49.40
2018-12-15T06:14:36.889Z,49.30
2018-12-15T06:17:05.507Z,49.30
2018-12-15T06:19:34.135Z,49.30
2018-12-15T06:22:02.722Z,49.30
2018-12-15T06:24:31.372Z,49.20
2018-12-15T06:27:00.037Z,49.20
2018-12-15T06:29:28.673Z,48.70
2018-12-15T06:31:57.303Z,49.20
2018-12-15T06:34:25.909Z,49.20
2018-12-15T06:36:54.543Z,49.20
2018-12-15T06:39:23.137Z,49.20
2018-12-15T06:41:51.837Z,49.20
2018-12-15T06:44:20.431Z,49.20
2018-12-15T06:46:49.033Z,49.20
2018-12-15T06:49:17.681Z,49.20
2018-12-15T06:51:46.318Z,49.30
2018-12-15T06:54:14.953Z,49.30
2018-12-15T06:56:43.571Z,49.40
2018-12-15T06:59:12.181Z,49.60
2018-12-15T07:01:40.812Z,50.10
2018-12-15T07:04:09.510Z,49.70
2018-12-15T07:06:38.192Z,49.70
2018-12-15T07:09:07.489Z,49.70
2018-12-15T07:11:36.108Z,49.80
2018-12-15T07:14:04.717Z,49.90
2018-12-15T07:16:33.805Z,50.10
2018-12-15T07:19:02.416Z,50.10
2018-12-15T07:21:31.041Z,50.20
2018-12-15T07:23:59.663Z,50.30
2018-12-15T07:26:30.501Z,50.30
2018-12-15T07:28:59.293Z,50.30
2018-12-15T07:31:31.075Z,50.40
2018-12-15T07:34:00.010Z,50.50
2018-12-15T07:36:28.623Z,50.50
2018-12-15T07:38:57.224Z,50.10
2018-12-15T07:41:25.834Z,50.50
2018-12-15T07:43:54.482Z,50.50
2018-12-15T07:46:23.088Z,50.50
2018-12-15T07:48:51.759Z,50.60
2018-12-15T07:51:20.505Z,50.60
2018-12-15T07:53:49.173Z,50.60
2018-12-15T07:56:17.821Z,50.50
2018-12-15T07:58:46.461Z,50.50
2018-12-15T08:01:15.090Z,50.50
2018-12-15T08:03:43.728Z,50.50
2018-12-15T08:06:12.346Z,50.50
2018-12-15T08:08:41.017Z,50.40
2018-12-15T08:11:14.911Z,50.40
2018-12-15T08:13:48.291Z,50.30
2018-12-15T08:16:17.003Z,50.30
2018-12-15T08:18:45.645Z,50.10
2018-12-15T08:21:14.260Z,50.00
2018-12-15T08:23:42.854Z,50.00
2018-12-15T08:26:11.494Z,50.00
2018-12-15T08:28:40.245Z,49.90
2018-12-15T08:31:08.913Z,49.90
2018-12-15T08:33:37.503Z,49.90
2018-12-15T08:36:06.157Z,49.90
2018-12-15T08:38:34.824Z,49.80
2018-12-15T08:41:03.452Z,49.90
2018-12-15T08:43:32.776Z,49.90
2018-12-15T08:46:02.366Z,49.90
2018-12-15T08:48:30.994Z,49.90
2018-12-15T08:50:59.893Z,49.90
2018-12-15T08:53:28.497Z,49.90
2018-12-15T08:55:57.184Z,50.00
2018-12-15T08:58:25.769Z,50.00
2018-12-15T09:00:54.413Z,50.00
2018-12-15T09:03:23.055Z,50.00
2018-12-15T09:05:51.684Z,50.00
2018-12-15T09:08:20.286Z,50.00
2018-12-15T09:10:48.869Z,50.00
2018-12-15T09:13:17.489Z,50.00
2018-12-15T09:15:46.108Z,50.10
2018-12-15T09:18:14.802Z,50.00
2018-12-15T09:20:44.304Z,50.00
2018-12-15T09:23:12.905Z,50.00
2018-12-15T09:25:41.585Z,50.00
2018-12-15T09:28:10.538Z,49.90
2018-12-15T09:30:39.942Z,50.00
2018-12-15T09:33:08.646Z,49.90
2018-12-15T09:35:37.298Z,49.90
2018-12-15T09:38:05.921Z,49.90
2018-12-15T09:40:34.542Z,49.80
2018-12-15T09:43:03.189Z,49.70
2018-12-15T09:45:31.826Z,49.70
2018-12-15T09:48:00.496Z,49.70
2018-12-15T09:50:29.133Z,49.60
2018-12-15T09:52:57.749Z,49.60
2018-12-15T09:55:26.339Z,49.50
2018-12-15T09:57:55.013Z,49.40
2018-12-15T10:00:23.636Z,49.30
2018-12-15T10:02:52.253Z,49.30
2018-12-15T10:05:20.878Z,49.30
2018-12-15T10:07:49.505Z,49.30
2018-12-15T10:10:18.094Z,49.30
2018-12-15T10:12:46.705Z,49.40
2018-12-15T10:15:15.321Z,49.40
2018-12-15T10:17:43.937Z,49.40
2018-12-15T10:20:12.564Z,50.10
2018-12-15T10:22:41.220Z,49.50
2018-12-15T10:25:10.023Z,49.50
2018-12-15T10:27:38.645Z,49.70
2018-12-15T10:30:12.707Z,49.80
2018-12-15T10:32:46.653Z,49.70
2018-12-15T10:35:15.750Z,49.70
2018-12-15T10:37:44.414Z,49.70
2018-12-15T10:40:13.076Z,49.70
2018-12-15T10:42:41.725Z,49.70
2018-12-15T10:45:10.332Z,49.70
2018-12-15T10:47:38.991Z,49.80
2018-12-15T10:50:08.905Z,49.80
2018-12-15T10:52:37.565Z,49.80
2018-12-15T10:55:07.044Z,49.70
2018-12-15T10:57:35.671Z,49.70
2018-12-15T11:00:05.057Z,49.70
2018-12-15T11:02:33.676Z,49.70
2018-12-15T11:05:02.347Z,49.60
2018-12-15T11:07:30.973Z,49.50
2018-12-15T11:09:59.557Z,49.60
2018-12-15T11:12:28.191Z,49.50
2018-12-15T11:14:56.842Z,49.40
2018-12-15T11:17:25.518Z,49.20
2018-12-15T11:19:54.155Z,49.10
2018-12-15T11:22:22.817Z,48.90
2018-12-15T11:24:52.063Z,48.80
2018-12-15T11:27:21.050Z,48.60
2018-12-15T11:29:49.701Z,48.60
2018-12-15T11:32:18.441Z,48.50
2018-12-15T11:34:47.055Z,48.40
2018-12-15T11:37:16.432Z,47.90
2018-12-15T11:39:45.688Z,48.50
2018-12-15T11:42:14.321Z,47.90
2018-12-15T11:44:43.053Z,48.00
2018-12-15T11:47:12.296Z,48.10
2018-12-15T11:49:43.703Z,48.60
2018-12-15T11:52:13.152Z,48.60
2018-12-15T11:54:41.904Z,48.30
2018-12-15T11:57:30.002Z,48.90
2018-12-15T12:00:00.281Z,48.80
2018-12-15T12:02:32.017Z,48.40
2018-12-15T12:05:00.394Z,48.90
2018-12-15T12:07:29.101Z,48.40
2018-12-15T12:09:58.075Z,48.40
2018-12-15T12:12:26.817Z,49.10
2018-12-15T12:14:55.453Z,48.30
2018-12-15T12:17:24.153Z,48.80
2018-12-15T12:19:52.809Z,48.80
2018-12-15T12:22:21.456Z,48.70
2018-12-15T12:24:50.237Z,48.80
2018-12-15T12:27:19.428Z,48.90
2018-12-15T12:29:48.420Z,48.90
2018-12-15T12:32:17.513Z,49.00
2018-12-15T12:34:46.238Z,48.50
2018-12-15T12:37:14.920Z,48.50
2018-12-15T12:39:43.527Z,49.00
2018-12-15T12:42:12.160Z,49.00
2018-12-15T12:44:40.864Z,48.90
2018-12-15T12:47:09.724Z,48.00
2018-12-15T12:49:38.393Z,48.60
2018-12-15T12:52:07.082Z,48.40
2018-12-15T12:54:35.737Z,48.20
2018-12-15T12:57:04.425Z,48.00
2018-12-15T12:59:33.126Z,47.20
2018-12-15T13:02:01.899Z,47.70
2018-12-15T13:04:30.828Z,47.00
2018-12-15T13:06:59.458Z,47.50
2018-12-15T13:09:28.062Z,47.50
2018-12-15T13:11:56.953Z,47.50
2018-12-15T13:14:25.626Z,47.50
2018-12-15T13:16:54.277Z,48.10
2018-12-15T13:19:22.890Z,48.10
2018-12-15T13:21:51.497Z,48.20
2018-12-15T13:24:20.101Z,48.50
2018-12-15T13:26:48.698Z,48.70
2018-12-15T13:29:17.368Z,48.90
2018-12-15T13:31:45.973Z,49.00
2018-12-15T13:34:14.655Z,48.90
2018-12-15T13:36:43.316Z,49.40
2018-12-15T13:39:11.943Z,49.50
2018-12-15T13:41:40.681Z,49.90
2018-12-15T13:44:09.341Z,49.80
2018-12-15T13:46:38.036Z,49.50
2018-12-15T13:49:07.092Z,50.10
2018-12-15T13:51:36.038Z,50.80
2018-12-15T13:54:04.662Z,51.00
2018-12-15T13:56:33.349Z,51.10
2018-12-15T13:59:01.999Z,51.00
2018-12-15T14:01:30.645Z,51.00
2018-12-15T14:03:59.261Z,51.10
2018-12-15T14:06:27.842Z,51.20
2018-12-15T14:08:56.483Z,51.00
2018-12-15T14:11:25.093Z,51.00
2018-12-15T14:13:53.725Z,51.10
2018-12-15T14:16:22.404Z,51.00
2018-12-15T14:18:51.074Z,50.90
2018-12-15T14:21:19.991Z,50.90
2018-12-15T14:23:48.630Z,50.90
2018-12-15T14:26:17.260Z,50.80
2018-12-15T14:28:46.213Z,51.00
2018-12-15T14:31:16.097Z,51.00
2018-12-15T14:33:44.712Z,51.00
2018-12-15T14:36:13.337Z,50.80
2018-12-15T14:38:41.977Z,50.70
2018-12-15T14:41:10.602Z,50.60
2018-12-15T14:43:39.206Z,50.60
2018-12-15T14:46:07.847Z,51.10
2018-12-15T14:48:36.572Z,51.00
2018-12-15T14:51:05.240Z,50.90
2018-12-15T14:53:33.852Z,50.90
2018-12-15T14:56:02.489Z,50.80
2018-12-15T14:58:31.164Z,50.70
2018-12-15T15:00:59.918Z,50.70
2018-12-15T15:03:28.683Z,50.70
2018-12-15T15:05:57.290Z,50.70
2018-12-15T15:08:25.911Z,50.70
2018-12-15T15:10:54.579Z,50.50
2018-12-15T15:13:23.353Z,50.50
2018-12-15T15:15:51.965Z,50.50
2018-12-15T15:18:20.594Z,50.50
2018-12-15T15:20:49.223Z,50.50
2018-12-15T15:23:17.827Z,50.50
2018-12-15T15:25:46.950Z,50.60
2018-12-15T15:28:16.473Z,50.50
2018-12-15T15:30:45.557Z,50.50
2018-12-15T15:33:14.324Z,50.50
2018-12-15T15:35:42.963Z,50.40
2018-12-15T15:38:11.616Z,50.40
2018-12-15T15:40:40.263Z,50.40
2018-12-15T15:43:08.921Z,50.30
2018-12-15T15:45:37.601Z,50.30
2018-12-15T15:48:06.262Z,50.20
2018-12-15T15:50:36.697Z,50.30
2018-12-15T15:53:05.509Z,50.30
2018-12-15T15:55:34.173Z,50.20
2018-12-15T15:58:02.823Z,50.90
2018-12-15T16:00:32.169Z,50.20
2018-12-15T16:03:00.779Z,50.20
2018-12-15T16:05:29.388Z,50.10
2018-12-15T16:07:58.009Z,50.10
2018-12-15T16:10:26.623Z,50.00
2018-12-15T16:12:55.235Z,49.90
2018-12-15T16:15:23.817Z,49.90
2018-12-15T16:17:52.468Z,49.80
2018-12-15T16:20:21.124Z,49.80
2018-12-15T16:22:49.749Z,49.70
2018-12-15T16:25:18.377Z,49.70
2018-12-15T16:27:47.043Z,49.80
2018-12-15T16:30:15.657Z,49.70
2018-12-15T16:32:44.285Z,49.70
2018-12-15T16:35:12.898Z,49.70
2018-12-15T16:37:41.527Z,49.30
2018-12-15T16:40:10.155Z,49.90
2018-12-15T16:42:38.798Z,49.90
2018-12-15T16:45:09.881Z,49.90
2018-12-15T16:47:38.496Z,49.90
2018-12-15T16:50:10.608Z,49.90
2018-12-15T16:52:39.874Z,49.90
2018-12-15T16:55:08.603Z,49.90
2018-12-15T16:57:37.196Z,49.90
2018-12-15T17:00:08.652Z,49.90
2018-12-15T17:02:37.281Z,50.40
2018-12-15T17:05:06.160Z,49.90
2018-12-15T17:07:34.777Z,49.70
2018-12-15T17:10:03.722Z,49.80
2018-12-15T17:12:32.335Z,49.80
2018-12-15T17:15:00.959Z,49.70
2018-12-15T17:17:29.574Z,49.80
2018-12-15T17:19:58.251Z,49.30
2018-12-15T17:22:26.857Z,49.80
2018-12-15T17:24:56.521Z,49.70
2018-12-15T17:27:28.750Z,49.70
2018-12-15T17:29:57.415Z,49.60
2018-12-15T17:32:26.044Z,49.50
2018-12-15T17:34:54.669Z,49.50
2018-12-15T17:37:23.270Z,49.40
2018-12-15T17:39:51.877Z,49.40
2018-12-15T17:42:20.484Z,49.20
2018-12-15T17:44:49.077Z,49.20
2018-12-15T17:47:17.713Z,49.20
2018-12-15T17:49:46.302Z,49.10
2018-12-15T17:52:14.924Z,49.10
2018-12-15T17:54:43.593Z,49.00
2018-12-15T17:57:12.229Z,49.10
2018-12-15T17:59:40.884Z,49.00
2018-12-15T18:02:12.890Z,49.00
2018-12-15T18:04:41.504Z,49.00
2018-12-15T18:07:10.114Z,48.90
2018-12-15T18:09:38.734Z,49.00
2018-12-15T18:12:07.367Z,49.00
2018-12-15T18:14:35.973Z,48.80
2018-12-15T18:17:04.624Z,48.80
2018-12-15T18:19:33.797Z,48.70
2018-12-15T18:22:02.422Z,48.60
2018-12-15T18:24:31.029Z,48.60
2018-12-15T18:26:59.639Z,48.50
2018-12-15T18:29:37.664Z,48.40
2018-12-15T18:32:07.013Z,48.30
2018-12-15T18:34:35.660Z,48.10
2018-12-15T18:37:04.257Z,48.00
2018-12-15T18:39:32.876Z,48.10
2018-12-15T18:42:03.574Z,47.90
2018-12-15T18:44:32.188Z,48.00
2018-12-15T18:47:00.853Z,48.10
2018-12-15T18:49:30.459Z,47.60
2018-12-15T18:51:59.930Z,48.20
2018-12-15T18:54:29.282Z,48.20
2018-12-15T18:56:58.794Z,48.20
2018-12-15T18:59:27.723Z,48.30
2018-12-15T19:01:56.313Z,48.30
2018-12-15T19:04:26.249Z,47.80
2018-12-15T19:06:54.871Z,47.80
2018-12-15T19:09:23.481Z,48.30
2018-12-15T19:11:53.120Z,48.30
2018-12-15T19:14:21.777Z,48.20
2018-12-15T19:16:50.430Z,48.80
2018-12-15T19:19:19.065Z,48.10
2018-12-15T19:21:47.683Z,48.00
2018-12-15T19:24:16.328Z,48.00
2018-12-15T19:26:44.957Z,48.00
2018-12-15T19:29:14.777Z,47.50
2018-12-15T19:31:44.311Z,48.00
2018-12-15T19:34:17.526Z,48.00
2018-12-15T19:36:44.855Z,48.00
2018-12-15T19:39:13.716Z,48.10
2018-12-15T19:41:42.381Z,48.10
2018-12-15T19:44:11.005Z,47.60
2018-12-15T19:46:39.642Z,48.10
2018-12-15T19:49:08.276Z,48.10
2018-12-15T19:51:36.986Z,48.10
2018-12-15T19:54:06.593Z,48.20
2018-12-15T19:56:35.237Z,48.20
2018-12-15T19:59:03.839Z,48.30
2018-12-15T20:01:32.499Z,48.40
2018-12-15T20:04:01.156Z,48.40
2018-12-15T20:06:29.829Z,48.30
2018-12-15T20:08:58.449Z,48.20
2018-12-15T20:11:27.906Z,48.20
2018-12-15T20:13:56.938Z,48.10
2018-12-15T20:16:26.811Z,48.00
2018-12-15T20:18:55.485Z,47.90
2018-12-15T20:21:26.014Z,47.80
2018-12-15T20:23:55.724Z,47.90
2018-12-15T20:26:24.376Z,47.90
2018-12-15T20:28:53.030Z,47.50
2018-12-15T20:31:21.741Z,48.00
2018-12-15T20:33:50.420Z,47.40
2018-12-15T20:36:19.817Z,47.90
2018-12-15T20:38:49.132Z,48.00
2018-12-15T20:41:19.275Z,48.00
2018-12-15T20:43:48.254Z,48.00
2018-12-15T20:46:16.897Z,48.00
2018-12-15T20:48:46.877Z,48.00
2018-12-15T20:51:15.721Z,48.00
2018-12-15T20:53:44.617Z,48.00
2018-12-15T20:56:13.930Z,48.00
2018-12-15T20:58:42.562Z,48.00
2018-12-15T21:01:11.195Z,48.10
2018-12-15T21:03:40.010Z,48.10
2018-12-15T21:06:08.655Z,48.20
2018-12-15T21:08:38.063Z,48.20
2018-12-15T21:11:06.785Z,48.20
2018-12-15T21:13:35.912Z,48.20
2018-12-15T21:16:05.329Z,48.20
2018-12-15T21:18:34.049Z,48.20
2018-12-15T21:21:02.681Z,48.30
2018-12-15T21:23:31.341Z,48.30
2018-12-15T21:26:00.401Z,48.20
2018-12-15T21:28:29.072Z,48.30
2018-12-15T21:30:59.155Z,48.30
2018-12-15T21:33:29.165Z,48.40
2018-12-15T21:35:58.406Z,48.40
2018-12-15T21:38:27.042Z,47.90
2018-12-15T21:40:57.412Z,48.50
2018-12-15T21:43:26.985Z,48.40
2018-12-15T21:45:56.072Z,48.40
2018-12-15T21:48:24.770Z,47.90
2018-12-15T21:50:54.594Z,48.50
2018-12-15T21:53:25.417Z,48.40
2018-12-15T21:55:54.102Z,47.90
2018-12-15T21:58:23.682Z,48.40
2018-12-15T22:00:53.216Z,48.30
2018-12-15T22:03:21.934Z,48.40
2018-12-15T22:05:50.596Z,47.90
2018-12-15T22:08:19.741Z,48.30
2018-12-15T22:10:49.250Z,48.30
2018-12-15T22:13:18.701Z,48.10
2018-12-15T22:15:47.460Z,48.00
2018-12-15T22:18:16.733Z,48.10
2018-12-15T22:20:46.006Z,48.10
2018-12-15T22:23:14.771Z,48.10
2018-12-15T22:25:44.130Z,48.50
2018-12-15T22:28:13.131Z,48.20
2018-12-15T22:30:41.818Z,48.20
2018-12-15T22:33:10.480Z,48.20
2018-12-15T22:35:39.140Z,48.20
2018-12-15T22:38:07.750Z,48.20
2018-12-15T22:40:36.397Z,48.20
2018-12-15T22:43:05.034Z,48.30
2018-12-15T22:45:33.969Z,48.30
2018-12-15T22:48:02.577Z,48.30
2018-12-15T22:50:31.290Z,48.30
2018-12-15T22:52:59.904Z,48.30
2018-12-15T22:55:28.537Z,48.30
2018-12-15T22:57:57.117Z,48.40
2018-12-15T23:00:25.709Z,48.30
2018-12-15T23:02:54.348Z,48.30
2018-12-15T23:05:22.984Z,48.30
2018-12-15T23:07:51.632Z,48.40
2018-12-15T23:10:20.253Z,48.50
2018-12-15T23:12:48.861Z,48.30
2018-12-15T23:15:17.516Z,48.40
2018-12-15T23:17:46.123Z,47.90
2018-12-15T23:20:14.835Z,48.40
2018-12-15T23:22:43.432Z,48.40
2018-12-15T23:25:12.070Z,48.30
2018-12-15T23:27:40.700Z,48.30
2018-12-15T23:30:09.356Z,48.30
2018-12-15T23:32:37.948Z,48.40
2018-12-15T23:35:06.592Z,48.40
2018-12-15T23:37:35.267Z,48.30
2018-12-15T23:40:04.001Z,48.30
2018-12-15T23:42:32.813Z,48.30
2018-12-15T23:45:01.418Z,48.20
2018-12-15T23:47:30.012Z,48.20
2018-12-15T23:49:58.651Z,48.20
2018-12-15T23:52:27.331Z,48.20
2018-12-15T23:55:03.994Z,48.20
2018-12-15T23:57:32.742Z,48.20
